createdAt,value
2023-07-03T00:01:27.251Z,23.30
2023-07-03T00:03:58.645Z,23.30
2023-07-03T00:06:27.997Z,23.10
2023-07-03T00:08:59.743Z,23.10
2023-07-03T00:11:28.936Z,23.10
2023-07-03T00:13:57.950Z,22.90
2023-07-03T00:16:27.237Z,22.70
2023-07-03T00:18:58.213Z,22.80
2023-07-03T00:21:27.393Z,22.70
2023-07-03T00:23:56.492Z,22.70
2023-07-03T00:26:26.259Z,22.70
2023-07-03T00:28:57.395Z,22.80
2023-07-03T00:31:26.697Z,22.90
2023-07-03T00:33:57.194Z,22.80
2023-07-03T00:36:26.284Z,22.90
2023-07-03T00:38:58.795Z,23.00
2023-07-03T00:41:29.125Z,22.90
2023-07-03T00:43:58.268Z,23.00
2023-07-03T00:46:27.594Z,23.00
2023-07-03T00:48:58.275Z,23.10
2023-07-03T00:51:28.214Z,23.00
2023-07-03T00:53:57.386Z,23.00
2023-07-03T00:56:26.547Z,23.10
2023-07-03T00:58:58.230Z,23.10
2023-07-03T01:01:35.707Z,23.10
2023-07-03T01:04:13.009Z,23.20
2023-07-03T01:06:52.666Z,23.20
2023-07-03T01:09:25.729Z,23.10
2023-07-03T01:11:55.303Z,23.10
2023-07-03T01:14:25.912Z,23.20
2023-07-03T01:16:57.855Z,23.20
2023-07-03T01:19:34.717Z,23.10
2023-07-03T01:22:11.613Z,23.10
2023-07-03T01:24:45.656Z,23.00
2023-07-03T01:27:18.032Z,23.10
2023-07-03T01:29:50.949Z,23.00
2023-07-03T01:32:22.305Z,22.90
2023-07-03T01:34:55.067Z,23.00
2023-07-03T01:37:28.276Z,23.10
2023-07-03T01:40:00.928Z,23.10
2023-07-03T01:42:32.152Z,22.80
2023-07-03T01:45:01.857Z,22.70
2023-07-03T01:47:32.940Z,22.70
2023-07-03T01:50:03.016Z,22.80
2023-07-03T01:52:39.151Z,22.60
2023-07-03T01:55:17.105Z,22.50
2023-07-03T01:57:50.566Z,22.60
2023-07-03T02:00:26.554Z,22.70
2023-07-03T02:02:58.228Z,22.70
2023-07-03T02:05:33.669Z,22.80
2023-07-03T02:08:04.219Z,22.60
2023-07-03T02:10:35.030Z,22.60
2023-07-03T02:13:04.252Z,22.70
2023-07-03T02:15:33.427Z,22.70
2023-07-03T02:18:03.458Z,22.70
2023-07-03T02:20:33.906Z,22.70
2023-07-03T02:23:03.240Z,22.70
2023-07-03T02:25:34.706Z,22.70
2023-07-03T02:28:03.786Z,22.70
2023-07-03T02:30:32.950Z,22.70
2023-07-03T02:33:02.196Z,22.80
2023-07-03T02:35:31.353Z,22.80
2023-07-03T02:38:00.517Z,22.70
2023-07-03T02:40:29.548Z,22.70
2023-07-03T02:43:00.672Z,22.60
2023-07-03T02:45:29.751Z,22.50
2023-07-03T02:47:59.029Z,22.50
2023-07-03T02:50:28.685Z,22.50
2023-07-03T02:52:57.874Z,22.50
2023-07-03T02:55:27.447Z,22.50
2023-07-03T02:57:59.190Z,22.60
2023-07-03T03:00:32.373Z,22.50
2023-07-03T03:03:01.679Z,22.60
2023-07-03T03:05:30.841Z,22.60
2023-07-03T03:08:02.543Z,22.60
2023-07-03T03:10:31.734Z,22.60
2023-07-03T03:13:00.963Z,22.60
2023-07-03T03:15:35.636Z,22.60
2023-07-03T03:18:05.262Z,22.60
2023-07-03T03:20:34.645Z,22.60
2023-07-03T03:23:04.226Z,22.60
2023-07-03T03:25:34.483Z,22.60
2023-07-03T03:28:03.691Z,22.60
2023-07-03T03:30:34.564Z,22.50
2023-07-03T03:33:05.079Z,22.50
2023-07-03T03:35:34.297Z,22.50
2023-07-03T03:38:03.525Z,22.40
2023-07-03T03:40:33.126Z,22.40
2023-07-03T03:43:02.581Z,22.40
2023-07-03T03:45:31.598Z,22.40
2023-07-03T03:48:02.519Z,22.30
2023-07-03T03:50:31.923Z,22.40
2023-07-03T03:53:01.038Z,20.70
2023-07-03T03:55:30.328Z,22.30
2023-07-03T03:58:00.023Z,22.40
2023-07-03T04:00:29.021Z,22.20
2023-07-03T04:02:58.267Z,22.10
2023-07-03T04:05:28.883Z,21.90
2023-07-03T04:07:57.963Z,21.90
2023-07-03T04:10:28.622Z,21.90
2023-07-03T04:12:57.855Z,21.90
2023-07-03T04:15:26.961Z,21.80
2023-07-03T04:17:56.051Z,21.90
2023-07-03T04:20:27.038Z,21.90
2023-07-03T04:22:57.604Z,22.00
2023-07-03T04:25:26.772Z,21.90
2023-07-03T04:27:55.931Z,21.90
2023-07-03T04:30:25.152Z,22.00
2023-07-03T04:32:56.183Z,21.80
2023-07-03T04:35:25.651Z,21.60
2023-07-03T04:37:54.731Z,21.40
2023-07-03T04:40:25.376Z,21.30
2023-07-03T04:42:54.421Z,21.30
2023-07-03T04:45:26.184Z,21.40
2023-07-03T04:47:55.855Z,21.30
2023-07-03T04:50:26.547Z,21.30
2023-07-03T04:52:58.280Z,21.40
2023-07-03T04:55:30.613Z,21.20
2023-07-03T04:58:00.827Z,21.10
2023-07-03T05:00:30.302Z,21.10
2023-07-03T05:03:01.716Z,21.00
2023-07-03T05:05:30.975Z,21.00
2023-07-03T05:08:00.233Z,21.10
2023-07-03T05:10:31.011Z,21.00
2023-07-03T05:13:01.083Z,21.00
2023-07-03T05:15:32.604Z,21.00
2023-07-03T05:18:01.937Z,21.00
2023-07-03T05:20:31.194Z,20.90
2023-07-03T05:23:00.383Z,21.10
2023-07-03T05:25:30.936Z,21.00
2023-07-03T05:27:59.975Z,21.00
2023-07-03T05:30:29.254Z,21.10
2023-07-03T05:32:58.522Z,21.20
2023-07-03T05:35:27.998Z,21.20
2023-07-03T05:37:57.676Z,21.10
2023-07-03T05:40:27.324Z,21.10
2023-07-03T05:42:58.041Z,21.20
2023-07-03T05:45:27.211Z,21.30
2023-07-03T05:47:56.331Z,21.30
2023-07-03T05:50:25.496Z,21.30
2023-07-03T05:52:54.446Z,21.40
2023-07-03T05:55:23.514Z,21.50
2023-07-03T05:57:52.545Z,21.50
2023-07-03T06:00:25.330Z,21.30
2023-07-03T06:02:56.117Z,21.20
2023-07-03T06:05:25.677Z,21.30
2023-07-03T06:07:54.709Z,21.30
2023-07-03T06:10:25.065Z,21.30
2023-07-03T06:12:54.263Z,21.30
2023-07-03T06:15:24.759Z,21.40
2023-07-03T06:17:54.075Z,21.50
2023-07-03T06:20:23.181Z,21.40
2023-07-03T06:22:52.261Z,21.50
2023-07-03T06:25:21.765Z,21.70
2023-07-03T06:27:50.942Z,21.70
2023-07-03T06:30:20.191Z,21.70
2023-07-03T06:32:50.873Z,21.80
2023-07-03T06:35:20.695Z,21.50
2023-07-03T06:37:49.908Z,21.60
2023-07-03T06:40:20.591Z,21.60
2023-07-03T06:42:49.655Z,21.60
2023-07-03T06:45:22.003Z,21.50
2023-07-03T06:47:53.088Z,21.50
2023-07-03T06:50:22.258Z,21.50
2023-07-03T06:52:51.300Z,21.50
2023-07-03T06:55:20.541Z,21.40
2023-07-03T06:57:49.746Z,21.50
2023-07-03T07:00:20.183Z,21.50
2023-07-03T07:02:49.418Z,21.60
2023-07-03T07:05:20.689Z,21.60
2023-07-03T07:07:49.857Z,21.40
2023-07-03T07:10:19.308Z,21.50
2023-07-03T07:12:48.424Z,21.40
2023-07-03T07:15:17.659Z,21.30
2023-07-03T07:17:51.812Z,21.40
2023-07-03T07:20:23.114Z,21.30
2023-07-03T07:22:52.506Z,21.20
2023-07-03T07:25:22.935Z,21.40
2023-07-03T07:27:52.096Z,21.40
2023-07-03T07:30:21.213Z,21.40
2023-07-03T07:32:53.425Z,21.30
2023-07-03T07:35:24.275Z,21.10
2023-07-03T07:37:53.369Z,21.10
2023-07-03T07:40:23.116Z,21.00
2023-07-03T07:42:52.331Z,21.20
2023-07-03T07:45:21.388Z,21.20
2023-07-03T07:47:50.531Z,21.30
2023-07-03T07:50:20.221Z,21.50
2023-07-03T07:52:53.341Z,21.60
2023-07-03T07:55:22.628Z,21.60
2023-07-03T07:57:52.232Z,21.70
2023-07-03T08:00:22.950Z,21.70
2023-07-03T08:02:51.993Z,22.00
2023-07-03T08:05:21.368Z,22.00
2023-07-03T08:07:52.951Z,22.00
2023-07-03T08:10:22.318Z,22.20
2023-07-03T08:12:53.581Z,22.30
2023-07-03T08:15:22.817Z,22.40
2023-07-03T08:17:51.917Z,22.10
2023-07-03T08:20:21.136Z,22.40
2023-07-03T08:22:51.716Z,22.40
2023-07-03T08:25:21.570Z,22.30
2023-07-03T08:27:50.515Z,22.50
2023-07-03T08:30:19.624Z,22.50
2023-07-03T08:32:48.715Z,22.50
2023-07-03T08:37:54.027Z,22.70
2023-07-03T08:40:24.626Z,22.60
2023-07-03T08:42:56.470Z,22.50
2023-07-03T08:45:31.410Z,22.70
2023-07-03T08:48:02.954Z,22.60
2023-07-03T08:50:37.139Z,22.50
2023-07-03T08:53:13.654Z,22.60
2023-07-03T08:55:48.594Z,22.50
2023-07-03T08:58:17.787Z,22.40
2023-07-03T09:00:58.722Z,22.50
2023-07-03T09:03:33.806Z,22.40
2023-07-03T09:06:10.890Z,22.20
2023-07-03T09:08:53.202Z,22.10
2023-07-03T09:11:24.477Z,22.20
2023-07-03T09:13:56.944Z,22.20
2023-07-03T09:16:26.772Z,22.20
2023-07-03T09:19:03.222Z,22.20
2023-07-03T09:21:34.865Z,22.40
2023-07-03T09:24:17.101Z,22.60
2023-07-03T09:26:51.150Z,22.80
2023-07-03T09:29:20.884Z,22.70
2023-07-03T09:31:50.951Z,22.80
2023-07-03T09:34:21.840Z,22.70
2023-07-03T09:37:00.589Z,22.80
2023-07-03T09:39:34.268Z,22.90
2023-07-03T09:42:08.855Z,22.90
2023-07-03T09:44:44.311Z,22.90
2023-07-03T09:47:21.379Z,23.00
2023-07-03T09:49:51.362Z,23.00
2023-07-03T09:52:20.453Z,23.00
2023-07-03T09:54:51.637Z,23.10
2023-07-03T09:57:27.611Z,23.00
2023-07-03T10:00:10.819Z,23.00
2023-07-03T10:07:50.843Z,23.10
2023-07-03T10:13:02.323Z,23.40
2023-07-03T10:15:36.008Z,23.50
2023-07-03T10:18:09.035Z,23.80
2023-07-03T10:20:43.093Z,24.20
2023-07-03T10:23:14.478Z,24.10
2023-07-03T10:25:51.078Z,23.80
2023-07-03T10:28:24.444Z,23.70
2023-07-03T10:31:00.144Z,23.70
2023-07-03T10:33:33.913Z,23.60
2023-07-03T10:36:08.062Z,24.10
2023-07-03T10:38:44.320Z,24.10
2023-07-03T10:41:20.286Z,24.20
2023-07-03T10:43:53.995Z,24.20
2023-07-03T10:46:29.720Z,24.20
2023-07-03T10:49:02.908Z,24.00
2023-07-03T10:51:43.243Z,24.20
2023-07-03T10:54:18.974Z,24.20
2023-07-03T10:56:53.833Z,24.30
2023-07-03T10:59:26.700Z,24.30
2023-07-03T11:02:05.257Z,24.30
2023-07-03T11:04:41.633Z,24.20
2023-07-03T11:07:16.509Z,24.40
2023-07-03T11:09:51.832Z,24.30
2023-07-03T11:12:33.136Z,24.60
2023-07-03T11:15:21.396Z,24.80
2023-07-03T11:23:22.706Z,25.00
2023-07-03T11:28:36.290Z,24.80
2023-07-03T11:31:06.958Z,24.80
2023-07-03T11:36:09.013Z,24.90
2023-07-03T11:43:49.974Z,24.70
2023-07-03T11:46:29.124Z,24.80
2023-07-03T11:49:00.004Z,24.90
2023-07-03T11:51:38.781Z,24.80
2023-07-03T11:54:30.145Z,24.70
2023-07-03T11:57:03.548Z,24.90
2023-07-03T11:59:40.539Z,25.00
2023-07-03T12:02:48.929Z,25.30
2023-07-03T12:05:53.543Z,25.60
2023-07-03T12:08:45.873Z,25.60
2023-07-03T12:11:16.759Z,25.60
2023-07-03T12:13:54.468Z,25.40
2023-07-03T12:16:28.952Z,25.70
2023-07-03T12:19:03.552Z,26.00
2023-07-03T12:21:46.716Z,26.20
2023-07-03T12:24:25.992Z,26.30
2023-07-03T12:26:57.992Z,26.40
2023-07-03T12:29:27.242Z,26.90
2023-07-03T12:32:01.034Z,27.50
2023-07-03T12:34:30.197Z,27.90
2023-07-03T12:37:04.326Z,28.00
2023-07-03T12:39:34.175Z,27.90
2023-07-03T12:42:11.546Z,27.10
2023-07-03T12:44:40.957Z,27.00
2023-07-03T12:47:14.300Z,26.90
2023-07-03T12:50:00.492Z,27.00
2023-07-03T12:52:32.896Z,27.00
2023-07-03T12:57:39.116Z,26.90
2023-07-03T13:00:16.605Z,27.00
2023-07-03T13:02:47.985Z,27.10
2023-07-03T13:05:23.029Z,27.10
2023-07-03T13:07:53.200Z,27.00
2023-07-03T13:10:23.500Z,27.10
2023-07-03T13:13:10.469Z,27.60
2023-07-03T13:15:41.226Z,27.40
2023-07-03T13:18:17.580Z,27.20
2023-07-03T13:20:58.845Z,27.50
2023-07-03T13:23:35.908Z,27.60
2023-07-03T13:26:08.698Z,27.30
2023-07-03T13:28:40.353Z,27.50
2023-07-03T13:31:14.909Z,27.40
2023-07-03T13:34:00.984Z,27.10
2023-07-03T13:36:32.215Z,26.50
2023-07-03T13:39:03.556Z,26.10
2023-07-03T13:41:32.802Z,26.10
2023-07-03T13:44:02.101Z,26.20
2023-07-03T13:46:31.308Z,26.30
2023-07-03T13:49:02.060Z,26.20
2023-07-03T13:51:31.967Z,26.30
2023-07-03T13:54:11.034Z,26.40
2023-07-03T13:56:42.142Z,26.40
2023-07-03T13:59:12.610Z,26.50
2023-07-03T14:01:43.660Z,26.60
2023-07-03T14:04:14.716Z,26.40
2023-07-03T14:06:43.876Z,26.50
2023-07-03T14:09:12.908Z,26.40
2023-07-03T14:11:42.072Z,26.40
2023-07-03T14:14:12.458Z,26.90
2023-07-03T14:16:41.515Z,27.00
2023-07-03T14:19:10.574Z,27.10
2023-07-03T14:21:41.802Z,26.80
2023-07-03T14:24:10.993Z,26.40
2023-07-03T14:26:40.230Z,26.40
2023-07-03T14:29:09.412Z,26.50
2023-07-03T14:31:38.657Z,26.30
2023-07-03T14:34:07.948Z,26.20
2023-07-03T14:36:37.094Z,25.90
2023-07-03T14:39:08.167Z,26.20
2023-07-03T14:41:37.451Z,26.20
2023-07-03T14:44:06.959Z,26.00
2023-07-03T14:46:36.224Z,25.90
2023-07-03T14:49:05.456Z,26.00
2023-07-03T14:51:34.495Z,25.90
2023-07-03T14:54:03.586Z,25.90
2023-07-03T14:56:34.260Z,25.90
2023-07-03T14:59:03.449Z,25.70
2023-07-03T15:01:33.769Z,25.50
2023-07-03T15:04:03.244Z,25.50
2023-07-03T15:06:32.524Z,25.60
2023-07-03T15:09:01.709Z,25.30
2023-07-03T15:11:31.055Z,25.30
2023-07-03T15:14:01.700Z,25.30
2023-07-03T15:16:32.429Z,25.20
2023-07-03T15:19:03.573Z,25.10
2023-07-03T15:21:34.463Z,24.90
2023-07-03T15:24:07.477Z,24.90
2023-07-03T15:26:40.443Z,24.90
2023-07-03T15:29:11.072Z,24.70
2023-07-03T15:31:42.315Z,24.70
2023-07-03T15:34:11.735Z,24.90
2023-07-03T15:36:41.098Z,24.70
2023-07-03T15:39:11.382Z,24.60
2023-07-03T15:41:40.492Z,24.60
2023-07-03T15:44:11.734Z,24.60
2023-07-03T15:46:40.915Z,24.60
2023-07-03T15:49:10.710Z,24.70
2023-07-03T15:51:40.129Z,24.60
2023-07-03T15:54:09.550Z,24.80
2023-07-03T15:56:39.702Z,24.80
2023-07-03T15:59:12.965Z,24.80
2023-07-03T16:01:42.197Z,24.80
2023-07-03T16:04:11.933Z,24.80
2023-07-03T16:06:41.146Z,24.90
2023-07-03T16:09:10.243Z,25.00
2023-07-03T16:11:39.586Z,25.10
2023-07-03T16:14:10.249Z,25.20
2023-07-03T16:16:39.403Z,25.50
2023-07-03T16:19:08.686Z,25.70
2023-07-03T16:21:37.984Z,25.70
2023-07-03T16:24:08.416Z,25.50
2023-07-03T16:26:37.596Z,25.30
2023-07-03T16:29:09.498Z,25.40
2023-07-03T16:31:41.779Z,25.30
2023-07-03T16:34:12.152Z,25.40
2023-07-03T16:36:41.399Z,25.50
2023-07-03T16:39:11.530Z,25.60
2023-07-03T16:41:41.726Z,25.50
2023-07-03T16:44:10.952Z,25.80
2023-07-03T16:46:41.513Z,26.00
2023-07-03T16:49:10.710Z,26.40
2023-07-03T16:51:39.822Z,26.70
2023-07-03T16:54:09.204Z,26.90
2023-07-03T16:56:38.908Z,26.90
2023-07-03T16:59:07.978Z,26.60
2023-07-03T17:01:37.200Z,26.60
2023-07-03T17:04:08.255Z,26.70
2023-07-03T17:06:37.860Z,26.70
2023-07-03T17:09:07.047Z,26.80
2023-07-03T17:11:36.300Z,27.10
2023-07-03T17:14:05.742Z,27.90
2023-07-03T17:16:35.249Z,28.50
2023-07-03T17:19:04.596Z,29.00
2023-07-03T17:21:35.299Z,29.20
2023-07-03T17:24:06.414Z,29.60
2023-07-03T17:26:35.951Z,28.80
2023-07-03T17:29:05.509Z,29.10
2023-07-03T17:31:34.826Z,29.20
2023-07-03T17:34:05.200Z,29.00
2023-07-03T17:36:35.937Z,29.00
2023-07-03T17:39:05.418Z,29.20
2023-07-03T17:41:35.966Z,28.50
2023-07-03T17:44:05.271Z,28.20
2023-07-03T17:46:34.385Z,28.10
2023-07-03T17:49:03.736Z,27.90
2023-07-03T17:51:35.530Z,27.80
2023-07-03T17:54:06.427Z,27.90
2023-07-03T17:56:35.541Z,27.60
2023-07-03T17:59:04.562Z,27.00
2023-07-03T18:01:33.940Z,26.70
2023-07-03T18:04:04.466Z,26.60
2023-07-03T18:06:35.880Z,26.40
2023-07-03T18:09:06.789Z,25.90
2023-07-03T18:11:36.013Z,25.80
2023-07-03T18:14:07.082Z,25.80
2023-07-03T18:16:36.399Z,25.90
2023-07-03T18:19:05.653Z,25.80
2023-07-03T18:21:34.788Z,25.70
2023-07-03T18:24:05.553Z,25.60
2023-07-03T18:26:36.507Z,25.50
2023-07-03T18:29:05.761Z,25.30
2023-07-03T18:31:34.917Z,25.30
2023-07-03T18:34:04.924Z,25.20
2023-07-03T18:36:34.205Z,25.10
2023-07-03T18:39:03.623Z,25.10
2023-07-03T18:41:32.879Z,25.00
2023-07-03T18:44:03.617Z,24.90
2023-07-03T18:46:35.457Z,24.80
2023-07-03T18:49:04.971Z,24.90
2023-07-03T18:51:34.227Z,24.90
2023-07-03T18:54:04.024Z,24.80
2023-07-03T18:56:33.229Z,24.70
2023-07-03T18:59:03.900Z,24.60
2023-07-03T19:01:33.253Z,24.50
2023-07-03T19:04:02.580Z,24.30
2023-07-03T19:06:32.620Z,24.30
2023-07-03T19:09:01.973Z,24.30
2023-07-03T19:11:31.096Z,24.40
2023-07-03T19:14:00.424Z,24.40
2023-07-03T19:16:31.218Z,24.30
2023-07-03T19:19:00.669Z,24.20
2023-07-03T19:21:29.820Z,24.10
2023-07-03T19:24:00.811Z,24.10
2023-07-03T19:26:31.766Z,24.10
2023-07-03T19:29:00.897Z,24.00
2023-07-03T19:31:31.632Z,23.90
2023-07-03T19:34:03.732Z,23.90
2023-07-03T19:36:32.842Z,23.90
2023-07-03T19:39:02.265Z,23.80
2023-07-03T19:41:31.556Z,23.60
2023-07-03T19:44:00.682Z,23.60
2023-07-03T19:46:31.254Z,23.50
2023-07-03T19:49:02.165Z,23.50
2023-07-03T19:51:31.596Z,23.50
2023-07-03T19:54:00.960Z,23.60
2023-07-03T19:56:31.119Z,23.50
2023-07-03T19:59:00.327Z,23.40
2023-07-03T20:01:32.855Z,23.40
2023-07-03T20:04:02.235Z,23.40
2023-07-03T20:06:31.753Z,23.50
2023-07-03T20:09:02.541Z,23.50
2023-07-03T20:11:31.714Z,23.50
2023-07-03T20:14:02.001Z,23.50
2023-07-03T20:16:32.896Z,23.60
2023-07-03T20:19:02.135Z,23.60
2023-07-03T20:21:31.249Z,23.40
2023-07-03T20:24:00.633Z,23.50
2023-07-03T20:26:29.759Z,23.50
2023-07-03T20:28:58.861Z,23.60
2023-07-03T20:31:28.198Z,23.60
2023-07-03T20:33:58.769Z,23.60
2023-07-03T20:36:28.636Z,23.60
2023-07-03T20:38:58.235Z,23.60
2023-07-03T20:41:27.369Z,23.60
2023-07-03T20:44:00.605Z,23.60
2023-07-03T20:46:29.878Z,23.60
2023-07-03T20:49:00.492Z,23.50
2023-07-03T20:51:34.023Z,23.50
2023-07-03T20:54:05.960Z,23.60
2023-07-03T20:56:39.122Z,23.60
2023-07-03T20:59:08.702Z,23.60
2023-07-03T21:01:40.555Z,23.60
2023-07-03T21:04:11.278Z,23.70
2023-07-03T21:06:40.512Z,23.70
2023-07-03T21:09:09.765Z,23.80
2023-07-03T21:11:43.952Z,23.70
2023-07-03T21:14:14.129Z,23.60
2023-07-03T21:16:43.718Z,23.50
2023-07-03T21:19:15.779Z,23.60
2023-07-03T21:21:44.902Z,23.60
2023-07-03T21:24:15.436Z,23.60
2023-07-03T21:26:44.648Z,23.50
2023-07-03T21:29:13.824Z,23.60
2023-07-03T21:31:43.209Z,23.50
2023-07-03T21:34:13.923Z,23.40
2023-07-03T21:36:43.159Z,23.30
2023-07-03T21:39:14.183Z,23.10
2023-07-03T21:41:43.637Z,22.90
2023-07-03T21:44:14.877Z,22.90
2023-07-03T21:46:44.475Z,22.60
2023-07-03T21:49:16.904Z,22.40
2023-07-03T21:51:46.262Z,22.10
2023-07-03T21:54:15.485Z,21.80
2023-07-03T21:56:44.748Z,21.70
2023-07-03T21:59:13.855Z,21.20
2023-07-03T22:01:44.294Z,20.70
2023-07-03T22:04:14.982Z,20.60
2023-07-03T22:06:44.184Z,20.50
2023-07-03T22:09:22.016Z,20.60
2023-07-03T22:11:58.301Z,20.90
2023-07-03T22:14:27.363Z,20.80
2023-07-03T22:16:56.735Z,20.60
2023-07-03T22:19:27.308Z,20.20
2023-07-03T22:21:58.458Z,20.30
2023-07-03T22:24:27.665Z,20.40
2023-07-03T22:26:58.210Z,20.40
2023-07-03T22:29:28.085Z,20.20
2023-07-03T22:31:57.333Z,19.90
2023-07-03T22:34:28.022Z,19.80
2023-07-03T22:36:57.195Z,20.00
2023-07-03T22:39:26.282Z,20.20
2023-07-03T22:41:55.317Z,19.90
2023-07-03T22:44:24.721Z,20.20
2023-07-03T22:46:54.083Z,20.20
2023-07-03T22:49:25.630Z,20.30
2023-07-03T22:51:56.600Z,20.50
2023-07-03T22:54:25.721Z,20.70
2023-07-03T22:56:54.870Z,20.80
2023-07-03T22:59:24.069Z,20.70
2023-07-03T23:01:54.982Z,20.70
2023-07-03T23:04:24.222Z,20.80
2023-07-03T23:06:53.344Z,20.80
2023-07-03T23:09:24.374Z,20.80
2023-07-03T23:11:54.576Z,20.80
2023-07-03T23:14:23.713Z,20.40
2023-07-03T23:16:56.214Z,20.20
2023-07-03T23:19:26.210Z,20.30
2023-07-03T23:21:56.093Z,20.40
2023-07-03T23:24:27.722Z,20.40
2023-07-03T23:26:57.129Z,20.30
2023-07-03T23:29:26.153Z,20.20
2023-07-03T23:31:55.750Z,20.00
2023-07-03T23:34:24.967Z,20.00
2023-07-03T23:36:53.938Z,19.90
2023-07-03T23:39:23.057Z,20.00
2023-07-03T23:41:54.026Z,19.90
2023-07-03T23:44:23.255Z,19.90
2023-07-03T23:46:52.485Z,20.00
2023-07-03T23:49:21.944Z,20.10
2023-07-03T23:51:53.458Z,20.10
2023-07-03T23:54:23.776Z,20.30
2023-07-03T23:56:54.637Z,20.40
2023-07-03T23:59:23.903Z,20.40
